createdAt,value
2022-11-30T00:00:57.461Z,10.88
2022-11-30T00:03:24.640Z,12.02
2022-11-30T00:05:51.228Z,11.98
2022-11-30T00:08:17.897Z,12.23
2022-11-30T00:10:44.339Z,12.25
2022-11-30T00:13:10.973Z,10.77
2022-11-30T00:15:37.830Z,12.35
2022-11-30T00:18:04.395Z,10.68
2022-11-30T00:20:31.080Z,12.60
2022-11-30T00:22:57.594Z,11.35
2022-11-30T00:25:25.007Z,11.48
2022-11-30T00:27:52.119Z,13.00
2022-11-30T00:30:18.667Z,13.80
2022-11-30T00:32:45.061Z,12.38
2022-11-30T00:35:11.472Z,12.77
2022-11-30T00:37:37.907Z,11.32
2022-11-30T00:40:06.115Z,12.05
2022-11-30T00:42:32.574Z,12.45
2022-11-30T00:44:59.032Z,13.23
2022-11-30T00:47:25.502Z,14.52
2022-11-30T00:49:51.929Z,12.30
2022-11-30T00:52:18.346Z,12.27
2022-11-30T00:54:44.892Z,13.32
2022-11-30T00:57:11.675Z,12.80
2022-11-30T00:59:38.066Z,10.88
2022-11-30T01:02:04.567Z,13.20
2022-11-30T01:04:31.007Z,11.90
2022-11-30T01:06:57.405Z,10.88
2022-11-30T01:09:23.797Z,12.25
2022-11-30T01:11:50.220Z,12.45
2022-11-30T01:14:16.721Z,11.23
2022-11-30T01:16:43.324Z,14.50
2022-11-30T01:19:09.782Z,17.77
2022-11-30T01:21:36.275Z,15.20
2022-11-30T01:24:02.736Z,14.57
2022-11-30T01:26:29.167Z,16.35
2022-11-30T01:28:56.504Z,14.43
2022-11-30T01:31:24.790Z,14.43
2022-11-30T01:33:53.748Z,13.40
2022-11-30T01:38:53.578Z,15.80
2022-11-30T01:41:29.506Z,16.85
2022-11-30T01:44:06.099Z,14.68
2022-11-30T01:46:40.938Z,13.25
2022-11-30T01:49:16.182Z,16.10
2022-11-30T01:51:53.552Z,14.70
2022-11-30T01:54:24.998Z,15.25
2022-11-30T01:57:03.078Z,14.90
2022-11-30T01:59:29.610Z,13.50
2022-11-30T02:01:56.480Z,13.20
2022-11-30T02:04:30.300Z,16.30
2022-11-30T02:06:58.289Z,14.30
2022-11-30T02:09:27.305Z,15.45
2022-11-30T02:11:54.067Z,14.60
2022-11-30T02:14:39.842Z,14.25
2022-11-30T02:17:51.520Z,17.17
2022-11-30T02:20:36.868Z,16.60
2022-11-30T02:23:10.672Z,17.95
2022-11-30T02:25:43.720Z,20.50
2022-11-30T02:28:42.181Z,16.55
2022-11-30T02:31:13.316Z,17.88
2022-11-30T02:33:41.943Z,18.00
2022-11-30T02:36:09.895Z,18.10
2022-11-30T02:38:38.015Z,21.83
2022-11-30T02:41:04.578Z,18.95
2022-11-30T02:43:32.515Z,19.85
2022-11-30T02:46:11.307Z,17.98
2022-11-30T02:48:49.614Z,20.00
2022-11-30T02:51:21.227Z,21.63
2022-11-30T02:53:48.718Z,20.17
2022-11-30T02:56:15.447Z,21.08
2022-11-30T02:58:41.879Z,17.77
2022-11-30T03:01:08.536Z,18.45
2022-11-30T03:03:35.023Z,19.88
2022-11-30T03:06:01.425Z,19.05
2022-11-30T03:08:27.828Z,17.25
2022-11-30T03:10:54.218Z,19.30
2022-11-30T03:13:20.723Z,19.30
2022-11-30T03:15:47.791Z,19.00
2022-11-30T03:18:14.691Z,19.85
2022-11-30T03:20:42.530Z,19.80
2022-11-30T03:23:09.335Z,16.92
2022-11-30T03:25:35.790Z,21.17
2022-11-30T03:28:02.670Z,18.48
2022-11-30T03:30:29.129Z,19.92
2022-11-30T03:32:55.587Z,22.52
2022-11-30T03:35:21.980Z,19.77
2022-11-30T03:37:48.473Z,18.92
2022-11-30T03:40:14.997Z,20.33
2022-11-30T03:42:41.410Z,21.67
2022-11-30T03:45:08.045Z,19.58
2022-11-30T03:47:34.474Z,18.08
2022-11-30T03:50:00.870Z,19.50
2022-11-30T03:52:27.332Z,20.25
2022-11-30T03:54:53.706Z,18.95
2022-11-30T03:57:20.148Z,18.75
2022-11-30T03:59:46.541Z,19.65
2022-11-30T04:02:13.024Z,21.88
2022-11-30T04:04:39.847Z,18.83
2022-11-30T04:07:06.297Z,18.65
2022-11-30T04:09:32.681Z,27.63
2022-11-30T04:11:59.067Z,20.48
2022-11-30T04:14:25.477Z,20.58
2022-11-30T04:16:51.842Z,22.08
2022-11-30T04:19:18.268Z,17.45
2022-11-30T04:21:44.721Z,23.88
2022-11-30T04:24:11.166Z,17.63
2022-11-30T04:26:37.548Z,20.02
2022-11-30T04:29:04.756Z,21.40
2022-11-30T04:31:31.427Z,19.88
2022-11-30T04:33:57.900Z,23.50
2022-11-30T04:36:24.425Z,20.65
2022-11-30T04:38:50.935Z,17.67
2022-11-30T04:41:17.378Z,18.63
2022-11-30T04:43:43.893Z,20.35
2022-11-30T04:46:10.793Z,21.50
2022-11-30T04:48:37.328Z,19.48
2022-11-30T04:51:06.164Z,22.13
2022-11-30T04:56:07.922Z,23.80
2022-11-30T04:58:35.235Z,17.60
2022-11-30T05:01:01.712Z,19.10
2022-11-30T05:03:28.126Z,20.35
2022-11-30T05:05:54.547Z,22.25
2022-11-30T05:08:20.979Z,19.13
2022-11-30T05:10:53.289Z,21.83
2022-11-30T05:13:20.988Z,19.30
2022-11-30T05:15:47.639Z,24.55
2022-11-30T05:18:15.806Z,19.60
2022-11-30T05:20:47.297Z,22.25
2022-11-30T05:23:13.723Z,19.23
2022-11-30T05:25:40.111Z,21.75
2022-11-30T05:28:06.534Z,21.85
2022-11-30T05:30:32.952Z,20.80
2022-11-30T05:32:59.347Z,19.02
2022-11-30T05:35:25.762Z,22.98
2022-11-30T05:37:52.174Z,22.63
2022-11-30T05:40:18.618Z,23.13
2022-11-30T05:42:45.005Z,20.75
2022-11-30T05:45:11.584Z,25.02
2022-11-30T05:47:38.033Z,20.58
2022-11-30T05:50:05.465Z,21.65
2022-11-30T05:52:31.852Z,29.48
2022-11-30T05:54:59.398Z,24.48
2022-11-30T05:57:25.809Z,23.55
2022-11-30T05:59:52.213Z,24.55
2022-11-30T06:02:21.439Z,26.75
2022-11-30T06:04:51.605Z,25.85
2022-11-30T06:07:18.012Z,25.35
2022-11-30T06:09:44.489Z,28.23
2022-11-30T06:12:10.957Z,21.92
2022-11-30T06:14:37.388Z,22.20
2022-11-30T06:17:03.941Z,22.73
2022-11-30T06:19:30.378Z,20.70
2022-11-30T06:21:56.774Z,25.77
2022-11-30T06:24:23.255Z,23.35
2022-11-30T06:26:49.703Z,22.08
2022-11-30T06:29:16.083Z,29.63
2022-11-30T06:31:42.484Z,29.42
2022-11-30T06:34:09.010Z,30.60
2022-11-30T06:36:36.392Z,23.75
2022-11-30T06:39:03.691Z,21.98
2022-11-30T06:41:30.445Z,27.95
2022-11-30T06:43:57.065Z,22.45
2022-11-30T06:46:23.961Z,24.67
2022-11-30T06:48:50.864Z,27.42
2022-11-30T06:51:17.421Z,28.80
2022-11-30T06:53:44.726Z,28.77
2022-11-30T06:56:11.964Z,31.40
2022-11-30T06:58:39.812Z,22.75
2022-11-30T07:01:15.087Z,29.33
2022-11-30T07:03:42.380Z,36.33
2022-11-30T07:06:11.341Z,30.08
2022-11-30T07:11:04.758Z,26.40
2022-11-30T07:13:31.619Z,26.05
2022-11-30T07:15:58.070Z,32.30
2022-11-30T07:18:28.596Z,31.75
2022-11-30T07:21:02.489Z,28.42
2022-11-30T07:23:52.368Z,39.97
2022-11-30T07:26:22.400Z,28.50
2022-11-30T07:28:54.505Z,23.17
2022-11-30T07:31:27.173Z,25.63
2022-11-30T07:33:53.751Z,26.33
2022-11-30T07:36:21.896Z,22.55
2022-11-30T07:38:48.882Z,24.45
2022-11-30T07:41:15.441Z,25.10
2022-11-30T07:43:41.855Z,24.13
2022-11-30T07:46:11.545Z,23.17
2022-11-30T07:48:38.243Z,23.63
2022-11-30T07:51:07.928Z,27.50
2022-11-30T07:53:34.353Z,32.65
2022-11-30T07:56:09.997Z,24.85
2022-11-30T07:58:37.214Z,23.60
2022-11-30T08:01:10.325Z,24.48
2022-11-30T08:03:37.548Z,27.45
2022-11-30T08:06:07.238Z,26.15
2022-11-30T08:08:36.971Z,24.75
2022-11-30T08:11:05.668Z,22.77
2022-11-30T08:13:32.388Z,29.48
2022-11-30T08:16:03.622Z,28.25
2022-11-30T08:18:30.246Z,25.90
2022-11-30T08:21:04.266Z,27.20
2022-11-30T08:23:33.927Z,27.13
2022-11-30T08:26:10.306Z,27.52
2022-11-30T08:28:36.982Z,24.38
2022-11-30T08:31:06.221Z,25.15
2022-11-30T08:33:33.881Z,30.55
2022-11-30T08:36:21.486Z,25.38
2022-11-30T08:38:48.894Z,33.65
2022-11-30T08:41:19.780Z,30.08
2022-11-30T08:43:46.850Z,26.13
2022-11-30T08:46:49.020Z,30.13
2022-11-30T08:52:16.576Z,31.55
2022-11-30T08:54:39.388Z,25.25
2022-11-30T08:57:05.868Z,27.70
2022-11-30T08:59:32.309Z,24.88
2022-11-30T09:01:58.755Z,23.83
2022-11-30T09:04:25.282Z,24.33
2022-11-30T09:06:51.665Z,23.98
2022-11-30T09:09:18.033Z,31.08
2022-11-30T09:11:44.468Z,29.08
2022-11-30T09:14:11.161Z,29.00
2022-11-30T09:16:37.677Z,27.15
2022-11-30T09:19:04.114Z,29.17
2022-11-30T09:21:30.668Z,32.50
2022-11-30T09:23:57.138Z,33.25
2022-11-30T09:26:25.399Z,31.65
2022-11-30T09:28:53.085Z,31.67
2022-11-30T09:31:22.435Z,27.50
2022-11-30T09:33:49.451Z,28.40
2022-11-30T09:36:18.616Z,30.13
2022-11-30T09:38:46.174Z,25.52
2022-11-30T09:41:34.486Z,29.23
2022-11-30T09:44:09.939Z,28.80
2022-11-30T09:46:40.516Z,30.55
2022-11-30T09:49:21.571Z,29.48
2022-11-30T09:51:49.711Z,32.15
2022-11-30T09:54:36.357Z,28.65
2022-11-30T09:57:17.193Z,24.08
2022-11-30T09:59:53.278Z,24.10
2022-11-30T10:02:22.331Z,23.25
2022-11-30T10:04:49.475Z,25.38
2022-11-30T10:07:47.284Z,25.23
2022-11-30T10:10:35.683Z,24.42
2022-11-30T10:13:33.275Z,23.42
2022-11-30T10:16:24.740Z,24.20
2022-11-30T10:19:06.224Z,25.13
2022-11-30T10:21:46.619Z,26.55
2022-11-30T10:24:38.717Z,24.38
2022-11-30T10:27:17.998Z,23.60
2022-11-30T10:29:44.866Z,25.60
2022-11-30T10:32:22.566Z,27.75
2022-11-30T10:34:55.066Z,24.38
2022-11-30T10:37:37.271Z,25.63
2022-11-30T10:40:16.717Z,27.40
2022-11-30T10:42:46.201Z,28.92
2022-11-30T10:45:17.688Z,27.80
2022-11-30T10:48:03.540Z,31.15
2022-11-30T10:50:30.920Z,33.47
2022-11-30T10:53:00.588Z,29.60
2022-11-30T10:55:35.781Z,29.17
2022-11-30T10:58:07.786Z,30.02
2022-11-30T11:00:34.277Z,31.17
2022-11-30T11:03:00.756Z,31.75
2022-11-30T11:05:29.494Z,32.00
2022-11-30T11:08:05.974Z,29.70
2022-11-30T11:10:37.035Z,32.55
2022-11-30T11:13:05.061Z,31.17
2022-11-30T11:15:35.262Z,30.60
2022-11-30T11:18:16.725Z,30.70
2022-11-30T11:20:43.632Z,30.13
2022-11-30T11:23:22.927Z,31.85
2022-11-30T11:25:53.165Z,32.15
2022-11-30T11:28:21.936Z,35.08
2022-11-30T11:30:48.446Z,30.52
2022-11-30T11:33:15.088Z,28.02
2022-11-30T11:35:41.568Z,28.60
2022-11-30T11:38:27.231Z,33.65
2022-11-30T11:40:58.807Z,28.02
2022-11-30T11:43:29.274Z,33.55
2022-11-30T11:46:01.061Z,30.48
2022-11-30T11:48:38.019Z,31.83
2022-11-30T11:51:11.685Z,30.60
2022-11-30T11:53:53.019Z,31.92
2022-11-30T11:59:03.277Z,30.23
2022-11-30T12:01:50.885Z,30.13
2022-11-30T12:04:48.023Z,36.38
2022-11-30T12:07:28.324Z,37.17
2022-11-30T12:09:58.153Z,32.20
2022-11-30T12:12:24.672Z,33.45
2022-11-30T12:14:51.237Z,31.65
2022-11-30T12:17:32.514Z,29.42
2022-11-30T12:20:31.718Z,31.55
2022-11-30T12:23:16.038Z,27.08
2022-11-30T12:26:06.777Z,32.80
2022-11-30T12:28:59.799Z,35.90
2022-11-30T12:31:38.412Z,27.15
2022-11-30T12:34:22.912Z,27.83
2022-11-30T12:37:03.186Z,27.15
2022-11-30T12:39:51.934Z,29.67
2022-11-30T12:42:29.808Z,28.70
2022-11-30T12:45:08.966Z,34.08
2022-11-30T12:47:47.377Z,35.17
2022-11-30T12:50:27.896Z,30.83
2022-11-30T12:53:15.751Z,27.65
2022-11-30T12:56:20.890Z,31.10
2022-11-30T12:58:54.654Z,28.30
2022-11-30T13:01:52.223Z,28.20
2022-11-30T13:04:59.618Z,23.92
2022-11-30T13:10:24.586Z,24.60
2022-11-30T13:12:54.637Z,25.48
2022-11-30T13:15:30.935Z,26.55
2022-11-30T13:17:58.004Z,27.35
2022-11-30T13:20:55.494Z,24.23
2022-11-30T13:23:32.194Z,23.50
2022-11-30T13:26:28.703Z,22.77
2022-11-30T13:29:07.150Z,22.80
2022-11-30T13:31:55.407Z,27.27
2022-11-30T13:37:07.708Z,25.27
2022-11-30T13:39:51.375Z,23.70
2022-11-30T13:42:36.617Z,22.63
2022-11-30T13:45:12.337Z,21.45
2022-11-30T13:47:51.915Z,25.88
2022-11-30T13:50:37.486Z,23.40
2022-11-30T13:53:03.959Z,26.13
2022-11-30T13:55:42.569Z,24.25
2022-11-30T13:58:15.498Z,26.15
2022-11-30T14:00:42.004Z,21.17
2022-11-30T14:03:08.388Z,21.23
2022-11-30T14:05:37.872Z,21.00
2022-11-30T14:08:07.299Z,21.50
2022-11-30T14:10:43.245Z,19.92
2022-11-30T14:13:10.205Z,20.75
2022-11-30T14:15:39.637Z,21.38
2022-11-30T14:18:09.191Z,22.35
2022-11-30T14:20:41.816Z,24.88
2022-11-30T14:23:13.464Z,21.20
2022-11-30T14:25:46.679Z,21.55
2022-11-30T14:28:17.307Z,22.65
2022-11-30T14:30:44.112Z,26.02
2022-11-30T14:33:27.454Z,25.60
2022-11-30T14:35:56.601Z,22.83
2022-11-30T14:38:32.080Z,22.17
2022-11-30T14:40:58.791Z,27.02
2022-11-30T14:43:25.346Z,27.13
2022-11-30T14:46:06.459Z,25.13
2022-11-30T14:48:35.777Z,26.65
2022-11-30T14:51:06.024Z,27.92
2022-11-30T14:53:58.536Z,24.90
2022-11-30T14:56:40.829Z,25.45
2022-11-30T14:59:24.468Z,27.55
2022-11-30T15:01:57.345Z,33.90
2022-11-30T15:04:29.736Z,26.45
2022-11-30T15:06:57.367Z,26.25
2022-11-30T15:09:32.392Z,26.52
2022-11-30T15:11:59.925Z,28.95
2022-11-30T15:14:26.363Z,29.77
2022-11-30T15:16:55.413Z,24.25
2022-11-30T15:19:26.639Z,28.90
2022-11-30T15:21:54.159Z,30.27
2022-11-30T15:24:20.964Z,31.55
2022-11-30T15:26:47.348Z,28.75
2022-11-30T15:29:20.691Z,23.05
2022-11-30T15:31:50.346Z,33.85
2022-11-30T15:34:42.372Z,28.83
2022-11-30T15:37:08.853Z,29.38
2022-11-30T15:39:35.574Z,27.73
2022-11-30T15:42:04.094Z,31.90
2022-11-30T15:44:33.315Z,31.65
2022-11-30T15:47:02.553Z,34.60
2022-11-30T15:49:30.855Z,32.47
2022-11-30T15:52:16.925Z,28.75
2022-11-30T15:54:58.864Z,32.55
2022-11-30T15:57:32.094Z,30.33
2022-11-30T16:00:12.477Z,30.38
2022-11-30T16:02:39.032Z,33.38
2022-11-30T16:05:22.290Z,39.13
2022-11-30T16:07:54.608Z,25.88
2022-11-30T16:10:31.551Z,29.67
2022-11-30T16:12:58.040Z,26.67
2022-11-30T16:15:24.452Z,30.60
2022-11-30T16:17:53.412Z,34.47
2022-11-30T16:22:49.038Z,24.17
2022-11-30T16:25:18.759Z,27.20
2022-11-30T16:27:47.561Z,27.20
2022-11-30T16:30:16.539Z,21.58
2022-11-30T16:35:18.324Z,26.90
2022-11-30T16:37:44.756Z,24.65
2022-11-30T16:40:12.046Z,28.85
2022-11-30T16:42:38.475Z,28.70
2022-11-30T16:45:05.391Z,26.17
2022-11-30T16:47:32.610Z,26.42
2022-11-30T16:49:59.005Z,24.58
2022-11-30T16:52:25.484Z,30.00
2022-11-30T16:54:51.861Z,26.92
2022-11-30T16:57:18.260Z,26.63
2022-11-30T16:59:44.791Z,26.92
2022-11-30T17:02:20.035Z,24.15
2022-11-30T17:04:46.972Z,22.60
2022-11-30T17:07:13.627Z,26.67
2022-11-30T17:09:40.008Z,25.42
2022-11-30T17:12:06.504Z,24.48
2022-11-30T17:14:32.897Z,28.73
2022-11-30T17:17:01.894Z,27.95
2022-11-30T17:19:28.397Z,26.50
2022-11-30T17:21:55.450Z,25.38
2022-11-30T17:24:21.834Z,27.95
2022-11-30T17:26:48.222Z,32.90
2022-11-30T17:29:14.628Z,28.17
2022-11-30T17:31:41.066Z,25.38
2022-11-30T17:34:08.586Z,25.02
2022-11-30T17:36:35.017Z,27.40
2022-11-30T17:39:06.918Z,25.02
2022-11-30T17:41:33.413Z,26.50
2022-11-30T17:44:02.430Z,21.70
2022-11-30T17:46:28.878Z,25.05
2022-11-30T17:48:55.514Z,24.35
2022-11-30T17:51:22.023Z,23.95
2022-11-30T17:53:49.455Z,31.45
2022-11-30T17:56:17.134Z,26.85
2022-11-30T17:58:45.530Z,25.67
2022-11-30T18:01:17.706Z,26.55
2022-11-30T18:03:47.331Z,25.80
2022-11-30T18:06:14.492Z,26.15
2022-11-30T18:08:41.289Z,27.55
2022-11-30T18:11:20.262Z,25.35
2022-11-30T18:13:47.820Z,26.13
2022-11-30T18:16:19.474Z,31.95
2022-11-30T18:18:48.367Z,25.90
2022-11-30T18:21:17.579Z,29.08
2022-11-30T18:23:44.176Z,28.83
2022-11-30T18:26:13.865Z,27.42
2022-11-30T18:28:40.528Z,26.48
2022-11-30T18:31:07.341Z,23.60
2022-11-30T18:33:35.047Z,24.98
2022-11-30T18:36:02.243Z,24.33
2022-11-30T18:38:34.198Z,22.30
2022-11-30T18:41:04.584Z,25.60
2022-11-30T18:43:31.755Z,25.60
2022-11-30T18:46:08.411Z,23.77
2022-11-30T18:48:35.461Z,17.90
2022-11-30T18:51:25.784Z,21.73
2022-11-30T18:53:59.927Z,23.00
2022-11-30T18:56:28.934Z,21.25
2022-11-30T19:01:24.142Z,23.00
2022-11-30T19:03:59.194Z,23.85
2022-11-30T19:06:29.451Z,24.67
2022-11-30T19:08:57.011Z,27.38
2022-11-30T19:11:23.646Z,23.90
2022-11-30T19:13:57.350Z,23.05
2022-11-30T19:16:25.792Z,25.30
2022-11-30T19:18:53.566Z,23.13
2022-11-30T19:21:22.222Z,25.23
2022-11-30T19:23:49.850Z,24.60
2022-11-30T19:26:16.744Z,24.85
2022-11-30T19:28:44.628Z,27.45
2022-11-30T19:31:16.774Z,21.70
2022-11-30T19:33:45.686Z,29.15
2022-11-30T19:36:18.197Z,23.65
2022-11-30T19:38:45.171Z,22.33
2022-11-30T19:41:13.388Z,25.95
2022-11-30T19:43:41.021Z,27.20
2022-11-30T19:46:10.130Z,27.85
2022-11-30T19:48:40.871Z,27.08
2022-11-30T19:51:13.426Z,26.25
2022-11-30T19:53:46.996Z,29.48
2022-11-30T19:56:16.218Z,28.48
2022-11-30T19:58:44.756Z,30.05
2022-11-30T20:01:15.612Z,33.53
2022-11-30T20:03:42.353Z,29.17
2022-11-30T20:06:11.756Z,25.25
2022-11-30T20:08:38.619Z,24.38
2022-11-30T20:11:10.502Z,27.38
2022-11-30T20:13:37.681Z,26.25
2022-11-30T20:16:15.610Z,28.35
2022-11-30T20:18:46.573Z,26.92
2022-11-30T20:21:15.823Z,31.95
2022-11-30T20:23:43.587Z,28.15
2022-11-30T20:26:14.128Z,27.98
2022-11-30T20:28:40.867Z,26.00
2022-11-30T20:31:09.185Z,26.65
2022-11-30T20:33:36.746Z,23.45
2022-11-30T20:36:05.077Z,25.10
2022-11-30T20:38:31.517Z,24.30
2022-11-30T20:40:58.364Z,23.92
2022-11-30T20:43:25.571Z,22.35
2022-11-30T20:45:52.309Z,23.58
2022-11-30T20:48:18.892Z,28.98
2022-11-30T20:51:00.988Z,28.00
2022-11-30T20:53:32.225Z,27.55
2022-11-30T20:56:00.738Z,24.08
2022-11-30T20:58:27.284Z,24.02
2022-11-30T21:00:53.743Z,28.45
2022-11-30T21:03:20.128Z,30.20
2022-11-30T21:05:46.517Z,27.40
2022-11-30T21:08:12.946Z,24.23
2022-11-30T21:10:40.271Z,22.67
2022-11-30T21:13:06.717Z,27.05
2022-11-30T21:15:33.185Z,28.80
2022-11-30T21:17:59.682Z,25.42
2022-11-30T21:20:26.140Z,26.15
2022-11-30T21:22:52.599Z,21.77
2022-11-30T21:25:19.050Z,25.13
2022-11-30T21:27:51.416Z,23.90
2022-11-30T21:30:18.169Z,25.48
2022-11-30T21:32:44.589Z,28.15
2022-11-30T21:35:10.989Z,27.05
2022-11-30T21:37:37.401Z,28.73
2022-11-30T21:40:04.106Z,24.67
2022-11-30T21:42:33.034Z,24.30
2022-11-30T21:44:59.473Z,24.80
2022-11-30T21:47:25.892Z,27.67
2022-11-30T21:49:52.427Z,26.05
2022-11-30T21:52:18.833Z,23.75
2022-11-30T21:54:45.304Z,22.45
2022-11-30T21:57:11.861Z,28.05
2022-11-30T21:59:38.238Z,28.08
2022-11-30T22:02:04.649Z,28.25
2022-11-30T22:04:37.076Z,21.90
2022-11-30T22:07:03.671Z,19.63
2022-11-30T22:09:33.174Z,24.77
2022-11-30T22:11:59.612Z,29.85
2022-11-30T22:14:26.020Z,32.97
2022-11-30T22:16:52.421Z,25.23
2022-11-30T22:19:19.016Z,27.90
2022-11-30T22:21:49.803Z,45.88
2022-11-30T22:24:16.770Z,29.52
2022-11-30T22:26:46.121Z,34.50
2022-11-30T22:29:15.628Z,49.60
2022-11-30T22:31:44.700Z,37.47
2022-11-30T22:34:11.485Z,34.40
2022-11-30T22:36:39.811Z,35.30
2022-11-30T22:39:13.934Z,29.88
2022-11-30T22:41:42.151Z,27.00
2022-11-30T22:44:13.109Z,32.45
2022-11-30T22:46:40.072Z,45.33
2022-11-30T22:49:09.270Z,31.27
2022-11-30T22:51:37.484Z,24.88
2022-11-30T22:54:05.263Z,26.50
2022-11-30T22:56:34.160Z,23.95
2022-11-30T22:59:01.440Z,23.00
2022-11-30T23:01:35.203Z,23.30
2022-11-30T23:04:07.164Z,19.73
2022-11-30T23:06:34.523Z,22.70
2022-11-30T23:09:01.620Z,22.38
2022-11-30T23:11:29.344Z,20.27
2022-11-30T23:13:55.871Z,23.15
2022-11-30T23:16:22.868Z,26.63
2022-11-30T23:18:54.752Z,24.77
2022-11-30T23:21:25.579Z,23.20
2022-11-30T23:23:52.050Z,23.23
2022-11-30T23:26:26.454Z,27.42
2022-11-30T23:28:54.350Z,23.60
2022-11-30T23:31:33.293Z,23.05
2022-11-30T23:34:06.901Z,22.45
2022-11-30T23:36:34.416Z,19.00
2022-11-30T23:39:03.924Z,24.77
2022-11-30T23:41:30.598Z,23.52
2022-11-30T23:43:57.051Z,19.98
2022-11-30T23:46:24.063Z,22.38
2022-11-30T23:48:50.875Z,22.73
2022-11-30T23:51:18.253Z,22.15
2022-11-30T23:53:44.678Z,22.90
2022-11-30T23:56:14.466Z,23.50
2022-11-30T23:58:41.437Z,26.02
